Time;durP1;ratioP1;P1;durP2;ratioP2;P2;SDS_P1;SDS_P2;PMS_P1;PMS_P2;Temp;Humidity;BMP_temperature;BMP_pressure;BME280_temperature;BME280_humidity;BME280_pressure;Samples;Min_cycle;Max_cycle;Signal;HPM_P1;HPM_P2
2024/02/04 00:01:57;;;;;;;0.33;0.33;;;;;;;8.26;100.00;99269.69;5078198;28;20718;-82
2024/02/04 00:04:25;;;;;;;0.50;0.40;;;;;;;8.27;100.00;99260.00;5078070;28;20682;-82
2024/02/04 00:06:52;;;;;;;0.30;0.30;;;;;;;8.31;100.00;99256.31;5077891;28;20219;-82
2024/02/04 00:09:19;;;;;;;0.20;0.20;;;;;;;8.30;100.00;99244.94;5077849;28;20216;-81
2024/02/04 00:11:45;;;;;;;0.33;0.30;;;;;;;8.29;100.00;99248.50;5077746;28;20290;-81
2024/02/04 00:14:12;;;;;;;0.30;0.20;;;;;;;8.26;100.00;99247.78;5078259;28;20229;-81
2024/02/04 00:16:38;;;;;;;1.60;0.40;;;;;;;8.18;100.00;99236.66;5078682;28;20209;-81
2024/02/04 00:19:05;;;;;;;0.40;0.40;;;;;;;8.10;100.00;99225.59;5079393;28;20574;-81
2024/02/04 00:21:33;;;;;;;0.70;0.60;;;;;;;8.03;100.00;99224.97;5080053;28;20229;-81
2024/02/04 00:23:59;;;;;;;0.50;0.50;;;;;;;8.01;100.00;99215.44;5079708;28;20216;-81
2024/02/04 00:26:26;;;;;;;0.53;0.53;;;;;;;7.93;100.00;99217.53;5079629;28;20219;-81
2024/02/04 00:28:52;;;;;;;0.40;0.40;;;;;;;7.88;100.00;99216.88;5078611;28;20231;-81
2024/02/04 00:31:19;;;;;;;1.70;0.63;;;;;;;7.84;100.00;99228.47;5079091;28;20230;-81
2024/02/04 00:33:45;;;;;;;0.53;0.53;;;;;;;7.84;100.00;99239.81;5078836;28;20209;-81
2024/02/04 00:36:12;;;;;;;0.40;0.40;;;;;;;7.86;100.00;99226.59;5079192;28;20214;-82
2024/02/04 00:38:40;;;;;;;1.00;0.60;;;;;;;7.88;100.00;99224.75;5077937;28;20223;-81
2024/02/04 00:41:06;;;;;;;0.47;0.43;;;;;;;7.91;100.00;99219.38;5078318;28;20214;-83
2024/02/04 00:43:33;;;;;;;0.30;0.30;;;;;;;7.94;100.00;99219.25;5078228;28;20329;-82
2024/02/04 00:46:01;;;;;;;0.20;0.20;;;;;;;7.97;100.00;99217.34;5077200;28;20204;-82
2024/02/04 00:48:27;;;;;;;0.40;0.40;;;;;;;7.97;100.00;99209.44;5076342;28;20272;-82
2024/02/04 00:50:54;;;;;;;0.30;0.30;;;;;;;8.02;100.00;99211.91;5076544;28;20213;-82
2024/02/04 00:53:20;;;;;;;0.40;0.40;;;;;;;8.00;100.00;99213.72;5075913;28;20222;-82
2024/02/04 00:55:48;;;;;;;0.60;0.30;;;;;;;8.02;100.00;99227.69;5076365;28;20205;-82
2024/02/04 00:58:15;;;;;;;0.30;0.30;;;;;;;8.01;100.00;99225.97;5076387;28;20707;-82
2024/02/04 01:00:41;;;;;;;0.30;0.30;;;;;;;7.97;100.00;99229.66;5076315;28;20217;-82
2024/02/04 01:03:08;;;;;;;0.50;0.50;;;;;;;7.98;100.00;99234.00;5076199;28;20233;-82
2024/02/04 01:05:34;;;;;;;0.40;0.40;;;;;;;7.96;100.00;99220.06;5075779;28;20295;-81
2024/02/04 01:08:01;;;;;;;0.50;0.30;;;;;;;7.97;100.00;99225.22;5076714;28;20297;-83
2024/02/04 01:10:27;;;;;;;0.40;0.40;;;;;;;7.90;100.00;99222.94;5079276;28;20230;-81
2024/02/04 01:12:55;;;;;;;0.30;0.30;;;;;;;7.84;100.00;99233.72;5078556;28;20230;-82
2024/02/04 01:15:21;;;;;;;0.40;0.40;;;;;;;7.81;100.00;99233.81;5077617;28;20209;-81
2024/02/04 01:17:48;;;;;;;0.73;0.40;;;;;;;7.81;100.00;99233.81;5078387;28;20220;-83
2024/02/04 01:20:14;;;;;;;0.30;0.30;;;;;;;7.87;100.00;99223.94;5077766;28;20221;-81
2024/02/04 01:22:41;;;;;;;0.30;0.30;;;;;;;7.80;100.00;99219.84;5077875;28;20235;-81
2024/02/04 01:25:08;;;;;;;0.30;0.30;;;;;;;7.77;100.00;99213.84;5075949;28;20204;-81
2024/02/04 01:27:35;;;;;;;0.37;0.37;;;;;;;7.70;100.00;99223.75;5074692;28;20231;-81
2024/02/04 01:30:03;;;;;;;0.60;0.40;;;;;;;7.73;100.00;99225.41;5074646;28;20214;-81
2024/02/04 01:32:29;;;;;;;0.30;0.30;;;;;;;7.73;100.00;99233.28;5074416;28;20245;-81
2024/02/04 01:34:56;;;;;;;0.40;0.40;;;;;;;7.75;100.00;99226.19;5075055;28;20209;-81
2024/02/04 01:37:23;;;;;;;0.37;0.37;;;;;;;7.78;100.00;99218.19;5073859;28;20205;-81
2024/02/04 01:39:49;;;;;;;0.30;0.30;;;;;;;7.78;100.00;99215.56;5074277;28;20217;-81
2024/02/04 01:42:16;;;;;;;0.27;0.27;;;;;;;7.79;100.00;99217.25;5071677;28;20239;-80
2024/02/04 01:44:43;;;;;;;0.30;0.30;;;;;;;7.78;100.00;99215.56;5074252;28;20357;-80
2024/02/04 01:47:11;;;;;;;0.30;0.30;;;;;;;7.83;100.00;99216.22;5074339;28;20214;-80
2024/02/04 01:49:38;;;;;;;0.30;0.30;;;;;;;7.88;100.00;99208.97;5076894;28;20295;-80
2024/02/04 01:52:07;;;;;;;0.40;0.40;;;;;;;7.85;100.00;99209.94;5084227;28;20235;-82
2024/02/04 01:54:34;;;;;;;0.40;0.40;;;;;;;7.91;100.00;99211.50;5082134;28;20214;-80
2024/02/04 01:57:01;;;;;;;0.53;0.53;;;;;;;7.91;100.00;99217.59;5086216;28;20271;-80
2024/02/04 01:59:30;;;;;;;0.40;0.40;;;;;;;7.89;100.00;99227.34;5088848;28;20263;-81
2024/02/04 02:01:57;;;;;;;0.33;0.33;;;;;;;7.90;100.00;99228.22;5082201;28;20780;-81
2024/02/04 02:04:25;;;;;;;0.50;0.50;;;;;;;7.92;100.00;99221.97;5078809;28;20338;-81
2024/02/04 02:06:52;;;;;;;0.70;0.47;;;;;;;7.89;100.00;99221.22;5076758;28;20216;-82
2024/02/04 02:09:19;;;;;;;1.43;0.80;;;;;;;7.85;100.00;99214.38;5077119;28;20213;-81
2024/02/04 02:11:48;;;;;;;1.27;0.87;;;;;;;7.88;100.00;99206.34;5077076;28;20746;-81
2024/02/04 02:14:19;;;;;;;1.30;0.90;;;;;;;7.84;100.00;99210.88;5076985;28;20213;-81
2024/02/04 02:16:47;;;;;;;1.40;1.03;;;;;;;7.84;100.00;99215.28;5076416;28;20212;-81
2024/02/04 02:19:26;;;;;;;0.87;0.70;;;;;;;7.84;100.00;99212.66;5077092;28;20209;-81
2024/02/04 02:22:01;;;;;;;0.70;0.70;;;;;;;7.83;100.00;99217.06;5075788;28;20237;-81
2024/02/04 02:24:33;;;;;;;1.17;0.90;;;;;;;7.83;100.00;99208.31;5076937;28;20238;-81
2024/02/04 02:27:00;;;;;;;0.83;0.70;;;;;;;7.80;100.00;99213.69;5076809;28;20220;-81
2024/02/04 02:29:26;;;;;;;0.70;0.70;;;;;;;7.79;100.00;99204.09;5077335;28;20216;-81
2024/02/04 02:31:53;;;;;;;1.00;0.80;;;;;;;7.77;100.00;99205.94;5076273;28;20260;-80
2024/02/04 02:34:19;;;;;;;0.90;0.70;;;;;;;7.77;100.00;99221.75;5077230;28;20203;-81
2024/02/04 02:36:51;;;;;;;0.50;0.50;;;;;;;7.78;100.00;99224.28;5075741;28;20295;-81
2024/02/04 02:39:22;;;;;;;0.40;0.40;;;;;;;7.78;100.00;99219.03;5076306;28;20220;-81
2024/02/04 02:41:51;;;;;;;0.43;0.40;;;;;;;7.73;100.00;99213.06;5076542;28;20229;-81
2024/02/04 02:44:19;;;;;;;0.30;0.30;;;;;;;7.78;100.00;99202.38;5077031;28;20605;-81
2024/02/04 02:46:47;;;;;;;0.77;0.50;;;;;;;7.75;100.00;99215.66;5075627;28;20208;-81
2024/02/04 02:49:14;;;;;;;0.50;0.40;;;;;;;7.75;100.00;99202.50;5076020;28;20209;-81
2024/02/04 02:51:41;;;;;;;0.53;0.50;;;;;;;7.70;100.00;99207.09;5075566;28;20239;-81
2024/02/04 02:54:07;;;;;;;0.50;0.50;;;;;;;7.72;100.00;99207.91;5078926;28;20215;-81
2024/02/04 02:56:34;;;;;;;0.70;0.50;;;;;;;7.73;100.00;99209.63;5079484;28;20208;-81
2024/02/04 02:59:01;;;;;;;0.40;0.40;;;;;;;7.75;100.00;99202.50;5079851;28;20212;-81
2024/02/04 03:01:30;;;;;;;0.40;0.40;;;;;;;7.74;100.00;99195.53;5079846;28;20229;-81
2024/02/04 03:03:56;;;;;;;0.70;0.30;;;;;;;7.76;100.00;99198.94;5079321;28;20239;-81
2024/02/04 03:06:23;;;;;;;0.30;0.30;;;;;;;7.69;100.00;99193.09;5080056;28;20212;-81
2024/02/04 03:08:50;;;;;;;0.40;0.40;;;;;;;7.70;100.00;99199.19;5080284;28;20220;-81
2024/02/04 03:11:16;;;;;;;0.40;0.40;;;;;;;7.72;100.00;99192.94;5081026;28;20237;-81
2024/02/04 03:13:42;;;;;;;0.27;0.27;;;;;;;7.71;100.00;99190.41;5080511;28;20205;-81
2024/02/04 03:16:12;;;;;;;0.30;0.30;;;;;;;7.69;100.00;99186.97;5080293;28;20208;-81
2024/02/04 03:18:40;;;;;;;0.30;0.30;;;;;;;7.73;100.00;99186.75;5080470;28;20208;-81
2024/02/04 03:21:13;;;;;;;0.40;0.40;;;;;;;7.71;100.00;99185.16;5080352;28;20209;-81
2024/02/04 03:23:39;;;;;;;1.27;0.40;;;;;;;7.71;100.00;99179.88;5080601;28;20240;-81
2024/02/04 03:26:05;;;;;;;0.43;0.30;;;;;;;7.71;100.00;99185.16;5080373;28;20205;-81
2024/02/04 03:28:32;;;;;;;0.60;0.40;;;;;;;7.67;100.00;99191.44;5080169;28;20206;-81
2024/02/04 03:30:58;;;;;;;0.30;0.30;;;;;;;7.68;100.00;99194.03;5080059;28;20220;-81
2024/02/04 03:33:26;;;;;;;0.30;0.30;;;;;;;7.69;100.00;99184.34;5081059;28;20548;-81
2024/02/04 03:35:53;;;;;;;0.30;0.30;;;;;;;7.71;100.00;99185.97;5079341;28;20206;-81
2024/02/04 03:38:19;;;;;;;0.20;0.20;;;;;;;7.70;100.00;99197.44;5077042;28;20213;-81
2024/02/04 03:40:48;;;;;;;0.43;0.40;;;;;;;7.70;100.00;99181.66;5077301;28;20209;-81
2024/02/04 03:43:15;;;;;;;0.37;0.37;;;;;;;7.68;100.00;99178.22;5077564;28;20240;-81
2024/02/04 03:45:42;;;;;;;0.53;0.53;;;;;;;7.72;100.00;99186.84;5077206;28;20212;-81
2024/02/04 03:48:08;;;;;;;0.30;0.30;;;;;;;7.69;100.00;99179.06;5077215;28;20229;-81
2024/02/04 03:50:36;;;;;;;0.40;0.30;;;;;;;7.66;100.00;99172.16;5079636;28;20209;-81
2024/02/04 03:53:03;;;;;;;0.47;0.30;;;;;;;7.64;100.00;99174.00;5080618;28;20593;-81
2024/02/04 03:55:30;;;;;;;0.30;0.30;;;;;;;7.65;100.00;99175.72;5080324;28;20210;-81
2024/02/04 03:57:57;;;;;;;0.37;0.37;;;;;;;7.62;100.00;99169.72;5079743;28;20213;-81
2024/02/04 04:00:23;;;;;;;0.50;0.50;;;;;;;7.61;100.00;99178.53;5079766;28;20298;-81
2024/02/04 04:02:50;;;;;;;0.40;0.40;;;;;;;7.62;100.00;99182.88;5079524;28;20714;-81
2024/02/04 04:05:16;;;;;;;0.40;0.40;;;;;;;7.60;100.00;99187.34;5078937;28;20215;-81
2024/02/04 04:07:44;;;;;;;1.33;0.50;;;;;;;7.59;100.00;99191.75;5080270;28;20209;-81
2024/02/04 04:10:11;;;;;;;0.40;0.40;;;;;;;7.56;100.00;99196.28;5078267;28;20238;-81
2024/02/04 04:12:37;;;;;;;0.40;0.40;;;;;;;7.55;100.00;99190.19;5080307;28;20244;-81
2024/02/04 04:15:04;;;;;;;1.20;0.40;;;;;;;7.57;100.00;99187.47;5080051;28;20211;-81
2024/02/04 04:17:31;;;;;;;0.50;0.40;;;;;;;7.64;100.00;99199.44;5079934;28;20682;-81
2024/02/04 04:19:57;;;;;;;0.40;0.40;;;;;;;7.63;100.00;99203.00;5079837;28;20225;-81
2024/02/04 04:22:24;;;;;;;0.20;0.20;;;;;;;7.63;100.00;99208.25;5080441;28;20778;-81
2024/02/04 04:24:52;;;;;;;0.60;0.40;;;;;;;7.66;100.00;99205.53;5080052;28;20758;-81
2024/02/04 04:27:18;;;;;;;0.40;0.40;;;;;;;7.69;100.00;99208.00;5079583;28;20207;-82
2024/02/04 04:29:45;;;;;;;0.40;0.40;;;;;;;7.71;100.00;99198.31;5077653;28;20220;-81
2024/02/04 04:32:11;;;;;;;0.30;0.30;;;;;;;7.71;100.00;99200.94;5076885;28;20230;-81
2024/02/04 04:34:38;;;;;;;1.13;0.40;;;;;;;7.69;100.00;99208.00;5076730;28;20220;-81
2024/02/04 04:37:04;;;;;;;0.33;0.33;;;;;;;7.71;100.00;99206.19;5076737;28;20695;-81
2024/02/04 04:39:31;;;;;;;0.30;0.30;;;;;;;7.70;100.00;99205.31;5077443;28;20204;-81
2024/02/04 04:41:59;;;;;;;0.93;0.40;;;;;;;7.71;100.00;99201.78;5076433;28;20229;-81
2024/02/04 04:44:25;;;;;;;0.30;0.30;;;;;;;7.72;100.00;99192.94;5076281;28;20237;-81
2024/02/04 04:46:52;;;;;;;0.30;0.30;;;;;;;7.81;100.00;99191.72;5076459;28;20231;-81
2024/02/04 04:49:18;;;;;;;0.30;0.30;;;;;;;7.77;100.00;99195.41;5076593;28;20592;-81
2024/02/04 04:51:46;;;;;;;0.30;0.30;;;;;;;7.76;100.00;99198.94;5076535;28;20318;-81
2024/02/04 04:54:12;;;;;;;0.33;0.33;;;;;;;7.77;100.00;99205.94;5076464;28;20208;-81
2024/02/04 04:56:39;;;;;;;1.30;0.30;;;;;;;7.81;100.00;99218.03;5076179;28;20220;-81
2024/02/04 04:59:07;;;;;;;0.40;0.30;;;;;;;7.83;100.00;99216.22;5075871;28;20206;-81
2024/02/04 05:01:34;;;;;;;0.40;0.40;;;;;;;7.83;100.00;99205.69;5076661;28;20234;-81
2024/02/04 05:04:01;;;;;;;0.50;0.50;;;;;;;7.82;100.00;99209.22;5076172;28;20579;-81
2024/02/04 05:06:27;;;;;;;0.50;0.40;;;;;;;7.83;100.00;99195.16;5076145;28;20216;-81
2024/02/04 05:08:54;;;;;;;0.37;0.37;;;;;;;7.83;100.00;99195.16;5076182;28;20313;-81
2024/02/04 05:11:20;;;;;;;1.00;0.40;;;;;;;7.78;100.00;99197.13;5075707;28;20230;-81
2024/02/04 05:13:46;;;;;;;0.43;0.40;;;;;;;7.80;100.00;99200.53;5076161;28;20214;-81
2024/02/04 05:16:14;;;;;;;0.40;0.40;;;;;;;7.79;100.00;99204.09;5076127;28;20645;-81
2024/02/04 05:18:41;;;;;;;0.40;0.40;;;;;;;7.78;100.00;99212.91;5074464;28;20217;-81
2024/02/04 05:21:07;;;;;;;0.27;0.27;;;;;;;7.80;100.00;99200.53;5075850;28;20685;-81
2024/02/04 05:23:34;;;;;;;0.33;0.30;;;;;;;7.80;100.00;99195.28;5075926;28;20241;-81
2024/02/04 05:26:05;;;;;;;0.30;0.30;;;;;;;7.80;100.00;99203.19;5076114;28;20218;-81
2024/02/04 05:28:32;;;;;;;0.30;0.30;;;;;;;7.83;100.00;99196.00;5076029;28;20205;-81
2024/02/04 05:30:58;;;;;;;0.20;0.20;;;;;;;7.84;100.00;99202.13;5075869;28;20227;-81
2024/02/04 05:33:26;;;;;;;0.37;0.33;;;;;;;7.81;100.00;99215.41;5075989;28;20825;-81
2024/02/04 05:35:53;;;;;;;0.33;0.33;;;;;;;7.75;100.00;99208.63;5076332;28;20209;-81
2024/02/04 05:38:19;;;;;;;0.33;0.30;;;;;;;7.79;100.00;99218.09;5075508;28;20283;-81
2024/02/04 05:40:46;;;;;;;0.33;0.33;;;;;;;7.82;100.00;99203.97;5076212;28;20236;-81
2024/02/04 05:43:12;;;;;;;0.30;0.30;;;;;;;7.81;100.00;99205.75;5075831;28;20231;-81
2024/02/04 05:45:40;;;;;;;0.40;0.40;;;;;;;7.76;100.00;99206.84;5076000;28;20233;-81
2024/02/04 05:48:07;;;;;;;0.30;0.30;;;;;;;7.76;100.00;99220.00;5075818;28;20805;-81
2024/02/04 05:50:35;;;;;;;0.30;0.30;;;;;;;7.80;100.00;99213.69;5076728;28;20217;-81
2024/02/04 05:53:02;;;;;;;0.37;0.37;;;;;;;7.88;100.00;99203.69;5075951;28;20229;-81
2024/02/04 05:55:29;;;;;;;0.30;0.30;;;;;;;7.95;100.00;99194.66;5076094;28;20201;-81
2024/02/04 05:57:56;;;;;;;0.30;0.30;;;;;;;8.01;100.00;99200.50;5075531;28;20204;-81
2024/02/04 06:00:22;;;;;;;0.20;0.20;;;;;;;8.10;100.00;99199.25;5076153;28;20581;-81
2024/02/04 06:02:48;;;;;;;0.13;0.13;;;;;;;8.10;100.00;99205.41;5075643;28;20236;-81
2024/02/04 06:05:15;;;;;;;0.20;0.20;;;;;;;8.12;100.00;99205.31;5075515;28;20261;-82
2024/02/04 06:07:44;;;;;;;0.20;0.20;;;;;;;8.16;100.00;99201.63;5075343;28;20262;-81
2024/02/04 06:10:11;;;;;;;0.10;0.10;;;;;;;8.16;100.00;99197.25;5077069;28;20209;-81
2024/02/04 06:12:40;;;;;;;0.10;0.10;;;;;;;8.19;100.00;99212.03;5075728;28;20237;-81
2024/02/04 06:15:12;;;;;;;0.20;0.20;;;;;;;8.22;100.00;99209.31;5075865;28;20214;-81
2024/02/04 06:17:39;;;;;;;0.20;0.20;;;;;;;8.19;100.00;99206.75;5075667;28;20224;-81
2024/02/04 06:20:06;;;;;;;0.20;0.20;;;;;;;8.18;100.00;99207.69;5075616;28;20220;-81
2024/02/04 06:22:33;;;;;;;0.20;0.20;;;;;;;8.18;100.00;99213.81;5075866;28;20254;-81
2024/02/04 06:25:01;;;;;;;0.20;0.20;;;;;;;8.15;100.00;99218.34;5075821;28;20229;-81
2024/02/04 06:27:26;;;;;;;0.10;0.10;;;;;;;8.13;100.00;99214.91;5078305;28;20419;-81
2024/02/04 06:29:52;;;;;;;0.20;0.20;;;;;;;8.20;100.00;99216.44;5080873;28;20236;-81
2024/02/04 06:32:20;;;;;;;0.30;0.30;;;;;;;8.22;100.00;99214.56;5079911;28;20731;-81
2024/02/04 06:34:46;;;;;;;0.20;0.20;;;;;;;8.24;100.00;99207.44;5080332;28;20220;-81
2024/02/04 06:37:13;;;;;;;0.20;0.20;;;;;;;8.19;100.00;99209.38;5079868;28;20206;-81
2024/02/04 06:39:39;;;;;;;0.10;0.10;;;;;;;8.16;100.00;99214.81;5080056;28;20205;-81
2024/02/04 06:42:07;;;;;;;0.30;0.20;;;;;;;8.16;100.00;99218.31;5080626;28;20240;-81
2024/02/04 06:44:33;;;;;;;0.20;0.20;;;;;;;8.17;100.00;99216.50;5080411;28;20605;-81
2024/02/04 06:47:00;;;;;;;0.20;0.20;;;;;;;8.17;100.00;99227.03;5080078;28;20207;-81
2024/02/04 06:49:26;;;;;;;0.20;0.20;;;;;;;8.17;100.00;99227.91;5079820;28;20215;-81
2024/02/04 06:51:56;;;;;;;0.30;0.30;;;;;;;8.19;100.00;99231.34;5079656;28;20236;-81
2024/02/04 06:54:23;;;;;;;0.20;0.20;;;;;;;8.17;100.00;99227.03;5080046;28;20209;-81
2024/02/04 06:56:49;;;;;;;0.40;0.23;;;;;;;8.15;100.00;99223.63;5079152;28;20219;-81
2024/02/04 06:59:17;;;;;;;0.40;0.30;;;;;;;8.16;100.00;99225.34;5080431;28;20215;-81
2024/02/04 07:01:43;;;;;;;0.20;0.20;;;;;;;8.13;100.00;99213.16;5079493;28;20229;-81
2024/02/04 07:04:10;;;;;;;0.33;0.30;;;;;;;8.18;100.00;99205.91;5078888;28;20238;-81
2024/02/04 07:06:36;;;;;;;0.20;0.20;;;;;;;8.16;100.00;99205.13;5079337;28;20209;-81
2024/02/04 07:09:03;;;;;;;0.20;0.20;;;;;;;8.11;100.00;99198.34;5078493;28;20205;-81
2024/02/04 07:11:30;;;;;;;0.30;0.30;;;;;;;8.10;100.00;99196.63;5079040;28;20315;-81
2024/02/04 07:14:00;;;;;;;0.30;0.30;;;;;;;8.06;100.00;99208.19;5079327;28;20689;-81
2024/02/04 07:16:28;;;;;;;0.20;0.20;;;;;;;7.97;100.00;99208.59;5078725;28;20235;-81
2024/02/04 07:18:55;;;;;;;0.20;0.20;;;;;;;7.88;100.00;99203.69;5078158;28;20216;-81
2024/02/04 07:21:22;;;;;;;0.20;0.20;;;;;;;7.78;100.00;99197.13;5079564;28;20627;-81
2024/02/04 07:23:49;;;;;;;0.30;0.30;;;;;;;7.80;100.00;99201.41;5078852;28;20205;-81
2024/02/04 07:26:15;;;;;;;0.20;0.20;;;;;;;7.77;100.00;99206.78;5078806;28;20220;-81
2024/02/04 07:28:42;;;;;;;1.13;0.30;;;;;;;7.76;100.00;99210.34;5077645;28;20209;-81
2024/02/04 07:31:08;;;;;;;0.20;0.20;;;;;;;7.73;100.00;99214.88;5077983;28;20217;-81
2024/02/04 07:33:36;;;;;;;0.20;0.20;;;;;;;7.74;100.00;99219.22;5078838;28;20242;-81
2024/02/04 07:36:07;;;;;;;0.20;0.20;;;;;;;7.71;100.00;99212.28;5078742;28;20208;-81
2024/02/04 07:38:34;;;;;;;0.30;0.30;;;;;;;7.67;100.00;99217.75;5078232;28;20195;-80
2024/02/04 07:41:00;;;;;;;0.30;0.30;;;;;;;7.74;100.00;99227.09;5078366;28;20204;-82
2024/02/04 07:43:27;;;;;;;0.30;0.30;;;;;;;7.73;100.00;99228.03;5078337;28;20208;-82
2024/02/04 07:45:54;;;;;;;0.43;0.40;;;;;;;7.81;100.00;99233.81;5078034;28;20232;-82
2024/02/04 07:48:20;;;;;;;0.40;0.30;;;;;;;7.80;100.00;99224.22;5077896;28;20214;-81
2024/02/04 07:50:49;;;;;;;0.30;0.30;;;;;;;7.85;100.00;99225.75;5077909;28;20209;-81
2024/02/04 07:53:15;;;;;;;0.30;0.30;;;;;;;7.89;100.00;99219.44;5077958;28;20230;-81
2024/02/04 07:55:42;;;;;;;0.40;0.30;;;;;;;7.94;100.00;99219.25;5077300;28;20205;-80
2024/02/04 07:58:08;;;;;;;0.50;0.50;;;;;;;8.03;100.00;99208.34;5076308;28;20225;-81
2024/02/04 08:00:35;;;;;;;0.50;0.50;;;;;;;8.14;100.00;99208.75;5077875;28;20569;-81
2024/02/04 08:03:01;;;;;;;0.30;0.30;;;;;;;8.21;100.00;99189.16;5077491;28;20232;-80
2024/02/04 08:05:28;;;;;;;0.40;0.40;;;;;;;8.35;100.00;99184.16;5077803;28;20244;-81
2024/02/04 08:07:56;;;;;;;0.40;0.40;;;;;;;8.44;100.00;99175.84;5076106;28;20676;-81
2024/02/04 08:10:23;;;;;;;0.30;0.30;;;;;;;8.45;100.00;99165.22;5077516;28;20220;-81
2024/02/04 08:12:50;;;;;;;0.23;0.23;;;;;;;8.48;100.00;99180.91;5077810;28;20230;-81
2024/02/04 08:15:17;;;;;;;0.40;0.40;;;;;;;8.56;100.00;99184.06;5077155;28;20206;-81
2024/02/04 08:17:44;;;;;;;0.20;0.20;;;;;;;8.66;100.00;99192.41;5076833;28;20210;-80
2024/02/04 08:20:11;;;;;;;0.40;0.40;;;;;;;8.76;100.00;99196.34;5078997;28;20212;-82
2024/02/04 08:22:38;;;;;;;0.30;0.30;;;;;;;8.84;100.00;99191.56;5078860;28;20231;-79
2024/02/04 08:25:07;;;;;;;0.20;0.20;;;;;;;8.93;100.00;99189.38;5078473;28;20249;-80
2024/02/04 08:27:33;;;;;;;0.30;0.30;;;;;;;9.03;100.00;99193.31;5076412;28;20280;-77
2024/02/04 08:30:00;;;;;;;0.20;0.20;;;;;;;9.05;100.00;99190.59;5074243;28;20683;-80
2024/02/04 08:32:26;;;;;;;0.40;0.37;;;;;;;9.01;100.00;99194.31;5079422;28;20230;-80
2024/02/04 08:34:53;;;;;;;0.30;0.30;;;;;;;9.04;100.00;99196.78;5078610;28;20207;-79
2024/02/04 08:37:19;;;;;;;0.40;0.37;;;;;;;9.13;100.00;99197.22;5079197;28;20208;-80
2024/02/04 08:39:46;;;;;;;0.33;0.30;;;;;;;9.08;100.00;99196.59;5079484;28;20673;-81
2024/02/04 08:42:14;;;;;;;0.40;0.40;;;;;;;9.16;100.00;99191.81;5076457;28;20237;-81
2024/02/04 08:44:41;;;;;;;0.30;0.30;;;;;;;9.19;100.00;99190.81;5078626;28;20618;-81
2024/02/04 08:47:10;;;;;;;0.30;0.30;;;;;;;9.29;100.00;99192.06;5075344;28;20207;-82
2024/02/04 08:49:36;;;;;;;0.30;0.30;;;;;;;9.31;100.00;99191.06;5078690;28;20237;-79
2024/02/04 08:52:03;;;;;;;0.30;0.30;;;;;;;9.35;100.00;99186.50;5077674;28;20233;-79
2024/02/04 08:54:30;;;;;;;0.27;0.27;;;;;;;9.35;100.00;99181.22;5077751;28;20211;-79
2024/02/04 08:56:56;;;;;;;0.30;0.30;;;;;;;9.41;100.00;99178.28;5076839;28;20218;-79
2024/02/04 08:59:24;;;;;;;0.50;0.33;;;;;;;9.44;100.00;99175.53;5078249;28;20204;-80
2024/02/04 09:01:51;;;;;;;0.30;0.30;;;;;;;9.51;100.00;99184.84;5077670;28;20284;-80
2024/02/04 09:04:18;;;;;;;0.30;0.30;;;;;;;9.51;100.00;99183.09;5077582;28;20208;-80
2024/02/04 09:06:44;;;;;;;0.30;0.30;;;;;;;9.59;100.00;99177.41;5078679;28;20618;-80
2024/02/04 09:09:11;;;;;;;0.30;0.20;;;;;;;9.60;100.00;99182.63;5080583;28;20211;-80
2024/02/04 09:11:37;;;;;;;0.20;0.20;;;;;;;9.62;100.00;99169.34;5079324;28;20230;-79
2024/02/04 09:14:04;;;;;;;0.20;0.20;;;;;;;9.66;100.00;99170.94;5076072;28;20211;-79
2024/02/04 09:16:32;;;;;;;0.40;0.40;;;;;;;9.63;100.00;99182.47;5078548;28;20430;-79
2024/02/04 09:18:58;;;;;;;1.53;0.60;;;;;;;9.64;100.00;99193.88;5077730;28;20225;-80
2024/02/04 09:21:25;;;;;;;0.30;0.30;;;;;;;9.63;100.00;99192.19;5081647;28;20227;-80
2024/02/04 09:23:51;;;;;;;0.47;0.30;;;;;;;9.67;100.00;99191.94;5080416;28;20211;-79
2024/02/04 09:26:18;;;;;;;0.20;0.20;;;;;;;9.63;100.00;99200.09;5076853;28;20266;-81
2024/02/04 09:28:44;;;;;;;0.37;0.30;;;;;;;9.66;100.00;99198.16;5075102;28;20220;-79
2024/02/04 09:31:14;;;;;;;0.27;0.27;;;;;;;9.70;100.00;99180.38;5074509;28;20219;-80
2024/02/04 09:33:42;;;;;;;0.20;0.20;;;;;;;9.69;100.00;99183.97;5075442;28;20302;-78
2024/02/04 09:36:08;;;;;;;2.63;1.43;;;;;;;9.71;100.00;99187.38;5075098;28;20224;-78
2024/02/04 09:38:35;;;;;;;0.30;0.30;;;;;;;9.71;100.00;99184.72;5076242;28;20573;-79
2024/02/04 09:41:03;;;;;;;0.40;0.20;;;;;;;9.74;100.00;99189.88;5075930;28;20324;-79
2024/02/04 09:43:31;;;;;;;0.40;0.30;;;;;;;9.76;100.00;99178.31;5074081;28;20210;-79
2024/02/04 09:45:58;;;;;;;0.30;0.30;;;;;;;9.81;100.00;99180.72;5072405;28;20242;-79
2024/02/04 09:48:26;;;;;;;0.20;0.20;;;;;;;9.78;100.00;99191.44;5075553;28;20210;-79
2024/02/04 09:50:54;;;;;;;0.20;0.20;;;;;;;9.74;100.00;99182.78;5076632;28;20585;-79
2024/02/04 09:53:32;;;;;;;0.77;0.20;;;;;;;9.78;100.00;99165.03;5075726;28;20210;-79
2024/02/04 09:56:00;;;;;;;0.37;0.30;;;;;;;9.83;100.00;99163.00;5075366;28;20216;-78
2024/02/04 09:58:26;;;;;;;0.20;0.20;;;;;;;9.89;99.14;99141.56;5075270;28;20210;-79
2024/02/04 10:00:55;;;;;;;0.20;0.20;;;;;;;9.93;98.99;99122.00;5075001;28;20216;-80
2024/02/04 10:03:22;;;;;;;0.20;0.20;;;;;;;9.97;97.93;99116.47;5075020;28;20213;-82
2024/02/04 10:05:48;;;;;;;0.20;0.20;;;;;;;10.06;98.10;99117.84;5075468;28;20245;-81
2024/02/04 10:08:16;;;;;;;0.20;0.20;;;;;;;10.11;96.46;99108.75;5074444;28;20436;-81
2024/02/04 10:10:43;;;;;;;0.20;0.20;;;;;;;10.13;96.49;99113.94;5077018;28;20205;-80
2024/02/04 10:13:10;;;;;;;0.20;0.20;;;;;;;10.15;96.13;99112.09;5075103;28;20235;-80
2024/02/04 10:15:37;;;;;;;0.20;0.20;;;;;;;10.26;95.61;99104.44;5074202;28;20212;-79
2024/02/04 10:18:05;;;;;;;0.30;0.30;;;;;;;10.35;93.92;99090.75;5073420;28;20209;-78
2024/02/04 10:20:32;;;;;;;0.53;0.30;;;;;;;10.42;94.03;99100.06;5075277;28;20215;-79
2024/02/04 10:22:58;;;;;;;0.30;0.30;;;;;;;10.62;94.29;99098.06;5075291;28;20357;-79
2024/02/04 10:25:27;;;;;;;0.20;0.20;;;;;;;10.64;92.67;99090.06;5077942;28;20239;-79
2024/02/04 10:27:54;;;;;;;0.37;0.30;;;;;;;10.70;93.84;99105.59;5078232;28;20209;-79
2024/02/04 10:30:21;;;;;;;0.90;0.40;;;;;;;10.73;92.98;99110.69;5078188;28;20552;-79
2024/02/04 10:32:48;;;;;;;0.10;0.10;;;;;;;10.69;92.63;99120.59;5078886;28;20223;-79
2024/02/04 10:35:14;;;;;;;0.20;0.20;;;;;;;10.69;91.28;99098.56;5078819;28;20255;-79
2024/02/04 10:37:41;;;;;;;0.30;0.30;;;;;;;10.71;91.15;99115.22;5077523;28;20223;-78
2024/02/04 10:40:08;;;;;;;0.20;0.20;;;;;;;10.82;91.03;99121.63;5077875;28;20224;-79
2024/02/04 10:42:38;;;;;;;1.17;0.37;;;;;;;10.87;90.15;99109.00;5077068;28;20224;-79
2024/02/04 10:45:09;;;;;;;0.27;0.27;;;;;;;10.91;90.14;99110.56;5077953;28;20208;-79
2024/02/04 10:47:39;;;;;;;0.30;0.30;;;;;;;11.00;90.73;99103.91;5076031;28;20213;-79
2024/02/04 10:50:06;;;;;;;0.60;0.30;;;;;;;11.03;89.60;99098.44;5075766;28;20576;-78
2024/02/04 10:52:39;;;;;;;0.40;0.40;;;;;;;10.94;89.72;99113.00;5076773;28;20733;-79
2024/02/04 10:55:09;;;;;;;0.43;0.30;;;;;;;10.88;90.51;99104.59;5078115;28;20215;-79
2024/02/04 10:57:38;;;;;;;0.57;0.30;;;;;;;10.73;90.64;99102.75;5076905;28;20736;-78
2024/02/04 11:00:08;;;;;;;0.30;0.30;;;;;;;10.56;92.10;99114.25;5076879;28;20204;-79
2024/02/04 11:02:35;;;;;;;0.30;0.30;;;;;;;10.46;92.77;99113.03;5076619;28;20764;-80
2024/02/04 11:05:04;;;;;;;0.20;0.20;;;;;;;10.45;93.56;99095.47;5075903;28;20206;-80
2024/02/04 11:07:33;;;;;;;0.30;0.30;;;;;;;10.56;93.84;99087.81;5076058;28;20219;-80
2024/02/04 11:10:00;;;;;;;0.20;0.20;;;;;;;10.76;93.72;99078.81;5076471;28;20233;-80
2024/02/04 11:12:29;;;;;;;0.20;0.20;;;;;;;10.94;92.23;99075.16;5075320;28;20226;-80
2024/02/04 11:15:00;;;;;;;0.30;0.30;;;;;;;11.11;91.22;99075.91;5079397;28;20207;-81
2024/02/04 11:18:05;;;;;;;0.20;0.20;;;;;;;11.36;89.21;99060.31;5079681;28;20205;-80
2024/02/04 11:20:49;;;;;;;0.20;0.20;;;;;;;11.60;87.77;99058.06;5077316;28;20221;-80
2024/02/04 11:23:30;;;;;;;0.17;0.17;;;;;;;11.86;87.00;99062.69;5078767;28;20600;-78
2024/02/04 11:25:58;;;;;;;0.30;0.30;;;;;;;12.01;85.85;99059.97;5078092;28;20234;-80
2024/02/04 11:28:26;;;;;;;0.30;0.30;;;;;;;11.93;83.48;99045.50;5077266;28;20430;-80
2024/02/04 11:30:55;;;;;;;0.30;0.30;;;;;;;11.73;84.50;99057.25;5075232;28;20215;-80
2024/02/04 11:33:23;;;;;;;0.30;0.30;;;;;;;11.67;84.70;99051.50;5078481;28;20207;-80
2024/02/04 11:36:00;;;;;;;0.30;0.30;;;;;;;11.60;84.65;99048.34;5079608;28;20500;-80